Latest Weather Observations for Norah Head

IDN60801

Issued at 11:05 am EDT Tuesday 25 November 2014 (issued every 30 minutes, with the page automatically refreshed every 10 minutes)

About weather observations | Map of weather stations | Latest weather observations for NSW | Other Formats
Station Details ID: 061366 Name: NORAH HEAD AWS Lat: -33.28 Lon: 151.58 Height: 18.8 m
Data from the previous 72 hours. | See also: Recent months at Norah Head
Date/Time
EDT
Temp
°C
App
Temp
°C
Dew
Point
Rel
Hum
%
Delta-T
°C
Wind Press
QNH
hPa
Press
MSL
hPa
Rain
since 9 am
mm
Dir
 
Spd
km/h
Gust
km/h
Spd
kts
Gust
kts
25/11:00am 24.4 24.9 19.2 73 3.3 S 15 20 8 11 1014.5 1014.4 0.0
25/10:30am 24.8 24.2 17.5 64 4.6 SSW 17 22 9 12 1014.1 1014.0 0.0
25/10:00am 24.9 26.4 18.8 69 3.9 W 9 15 5 8 1013.6 1013.5 0.0
25/09:30am 25.1 26.6 19.0 69 3.9 WNW 9 20 5 11 1013.1 1013.0 0.0
25/09:00am 24.3 26.2 18.9 72 3.4 W 7 22 4 12 1012.4 1012.3 9.4
25/08:30am 23.9 25.7 19.6 77 2.8 WNW 9 20 5 11 1012.2 1012.1 9.4
25/08:00am 23.3 24.9 19.2 78 2.6 W 9 20 5 11 1012.0 1011.9 9.4
25/07:30am 22.5 24.5 19.1 81 2.2 WSW 7 15 4 8 1011.1 1011.0 9.4
25/07:13am 22.3 23.7 20.4 89 1.2 WNW 13 22 7 12 1010.9 1010.8 9.4
25/07:00am 22.1 21.7 20.2 89 1.2 N 22 28 12 15 1008.7 1008.7 9.4
25/06:30am 22.1 23.2 19.6 86 1.6 NW 13 19 7 10 1008.9 1008.9 9.4
25/06:00am 22.2 24.2 19.9 87 1.5 NW 9 19 5 10 1009.6 1009.5 9.4
25/05:30am 22.0 24.1 20.1 89 1.2 NW 9 15 5 8 1009.8 1009.7 9.0
25/05:00am 22.1 24.7 20.0 88 1.4 NW 6 9 3 5 1009.6 1009.5 9.0
25/04:30am 22.1 24.1 20.0 88 1.3 NW 9 13 5 7 1008.7 1008.7 9.0
25/04:00am 22.3 24.4 20.2 88 1.4 NNW 9 13 5 7 1008.4 1008.4 9.0
25/03:30am 22.6 24.7 20.1 86 1.6 NW 9 17 5 9 1009.1 1009.1 9.0
25/03:00am 22.4 25.2 20.5 89 1.2 WNW 6 7 3 4 1009.7 1009.6 9.0
25/02:30am 22.3 24.9 20.4 89 1.2 WNW 7 11 4 6 1009.2 1009.2 9.0
25/02:00am 22.2 25.0 20.5 90 1.1 WNW 6 13 3 7 1009.4 1009.3 9.0
25/01:30am 22.1 24.4 20.7 92 0.9 NW 9 17 5 9 1009.7 1009.6 9.0
25/01:00am 22.3 24.8 21.1 93 0.8 NW 9 13 5 7 1009.9 1009.8 9.0
25/12:30am 22.4 24.1 21.6 95 0.5 NNW 15 24 8 13 1010.4 1010.3 8.8
25/12:00am 22.5 24.4 22.0 97 0.3 NNW 15 20 8 11 1010.1 1010.0 8.4
 
Date/Time
EDT
Temp
°C
App
Temp
°C
Dew
Point
Rel
Hum
%
Delta-T
°C
Wind Press
QNH
hPa
Press
MSL
hPa
Rain
since 9 am
mm
Dir
 
Spd
km/h
Gust
km/h
Spd
kts
Gust
kts
24/11:30pm 22.4 25.9 21.9 97 0.3 NW 6 9 3 5 1009.5 1009.4 8.4
24/11:00pm 22.4 23.4 22.1 98 0.2 N 20 22 11 12 1009.6 1009.5 8.4
24/10:30pm 22.7 26.3 22.4 98 0.2 WNW 7 17 4 9 1010.2 1010.1 5.8
24/10:00pm 21.7 24.3 21.2 97 0.3 W 9 11 5 6 1009.4 1009.3 5.6
24/09:30pm 21.6 24.1 21.1 97 0.3 NE 9 11 5 6 1008.1 1008.1 5.6
24/09:00pm 21.7 22.2 21.2 97 0.3 NE 20 24 11 13 1008.6 1008.6 5.6
24/08:30pm 21.6 25.4 20.9 96 0.5 W 2 6 1 3 1009.6 1009.5 3.2
24/08:00pm 21.7 21.7 21.0 96 0.5 S 22 26 12 14 1008.1 1008.1 3.2
24/07:50pm 21.7 23.8 21.0 96 0.5 SW 11 20 6 11 1009.1 1009.1 2.4
24/07:30pm 21.9 23.0 21.2 96 0.5 E 17 20 9 11 1007.1 1007.1 2.4
24/07:00pm 21.9 22.5 21.1 95 0.5 E 19 20 10 11 1006.6 1006.6 2.4
24/06:48pm 22.0 24.2 21.2 95 0.5 E 11 20 6 11 1006.9 1006.9 2.4
24/06:30pm 21.8 24.3 21.0 95 0.5 SW 9 19 5 10 1008.9 1008.9 1.8
24/06:00pm 22.0 24.3 20.6 92 0.9 SSW 9 15 5 8 1008.1 1008.1 0.4
24/05:30pm 22.5 22.6 20.4 88 1.4 SSE 20 24 11 13 1007.7 1007.7 0.0
24/05:29pm 22.6 22.7 20.3 87 1.5 SSE 20 22 11 12 1007.8 1007.8 0.0
24/05:08pm 22.5 24.3 20.4 88 1.4 SSW 11 19 6 10 1009.9 1009.8 0.0
24/05:00pm 22.5 23.6 20.4 88 1.4 S 15 24 8 13 1007.7 1007.7 0.0
24/04:30pm 22.8 26.7 20.3 86 1.6 CALM 0 6 0 3 1006.5 1006.5 0.0
24/04:00pm 22.3 25.1 19.7 85 1.7 N 4 7 2 4 1007.3 1007.3 0.0
24/03:30pm 23.2 24.9 20.2 83 1.9 NE 11 15 6 8 1007.1 1007.1 0.0
24/03:00pm 25.8 27.0 20.6 73 3.4 NE 15 19 8 10 1007.6 1007.6 0.0
24/02:30pm 24.8 25.8 20.3 76 2.9 ENE 15 19 8 10 1008.5 1008.5 0.0
24/02:00pm 24.7 26.1 20.4 77 2.8 E 13 15 7 8 1009.6 1009.5 0.0
24/01:30pm 24.6 26.8 20.3 77 2.8 E 9 13 5 7 1010.3 1010.2 0.0
24/01:00pm 24.8 27.3 20.3 76 2.9 ESE 7 9 4 5 1010.9 1010.8 0.0
24/12:30pm 25.5 26.1 21.0 76 3.0 SSE 19 22 10 12 1011.3 1011.2 0.0
24/12:00pm 25.1 24.9 20.6 76 2.9 SSE 22 24 12 13 1011.9 1011.8 0.0
24/11:30am 24.7 25.5 20.6 78 2.7 S 17 20 9 11 1012.7 1012.6 0.0
24/11:00am 23.7 24.3 20.2 81 2.3 S 17 20 9 11 1013.3 1013.2 0.0
24/10:30am 23.3 23.6 20.4 84 1.9 S 19 26 10 14 1013.4 1013.3 0.0
24/10:00am 22.8 23.2 19.8 83 1.9 SSW 17 20 9 11 1013.8 1013.7 0.0
24/09:30am 23.0 22.9 20.0 83 1.9 SSW 20 26 11 14 1014.0 1013.9 0.0
24/09:00am 22.9 23.8 20.1 84 1.8 SSW 15 20 8 11 1014.4 1014.3 0.0
24/08:30am 21.9 22.9 19.5 86 1.5 SSW 13 17 7 9 1014.7 1014.6 0.0
24/08:00am 21.7 23.2 19.8 89 1.2 SSW 11 15 6 8 1014.3 1014.2 0.0
24/07:30am 21.3 21.3 20.1 93 0.8 S 20 26 11 14 1013.7 1013.6 0.0
24/07:00am 21.2 22.3 20.4 95 0.5 S 15 19 8 10 1014.0 1013.9 0.0
24/06:30am 21.2 23.0 20.4 95 0.5 S 11 13 6 7 1013.6 1013.5 0.0
24/06:00am 21.1 23.8 20.3 95 0.5 SSW 6 9 3 5 1013.9 1013.8 0.0
24/05:30am 21.0 23.4 20.0 94 0.6 SSE 7 11 4 6 1013.5 1013.4 0.0
24/05:00am 21.2 23.0 20.4 95 0.5 ESE 11 13 6 7 1013.3 1013.2 0.0
24/04:30am 21.1 21.4 20.3 95 0.5 SSE 19 22 10 12 1012.9 1012.8 0.0
24/04:00am 21.1 21.1 20.1 94 0.6 SSE 20 26 11 14 1012.4 1012.3 0.0
24/03:30am 21.0 19.4 20.0 94 0.6 SSE 28 33 15 18 1011.7 1011.6 0.0
24/03:00am 21.1 19.5 20.1 94 0.6 S 28 35 15 19 1011.1 1011.0 0.0
24/02:30am 21.4 20.4 20.4 94 0.6 S 26 32 14 17 1011.3 1011.2 0.0
24/02:00am 21.4 21.9 20.0 92 0.9 SSW 17 20 9 11 1011.6 1011.5 0.0
24/01:30am 21.7 24.4 20.3 92 0.9 SW 6 9 3 5 1012.1 1012.0 0.0
24/01:00am 21.3 24.2 19.9 92 0.9 W 4 7 2 4 1012.5 1012.4 0.0
24/12:30am 21.4 24.4 20.0 92 0.9 WSW 4 7 2 4 1013.4 1013.3 0.0
24/12:00am 21.1 24.3 19.7 92 0.9 W 2 7 1 4 1013.7 1013.6 0.0
 
Date/Time
EDT
Temp
°C
App
Temp
°C
Dew
Point
Rel
Hum
%
Delta-T
°C
Wind Press
QNH
hPa
Press
MSL
hPa
Rain
since 9 am
mm
Dir
 
Spd
km/h
Gust
km/h
Spd
kts
Gust
kts
23/11:30pm 21.3 24.3 20.1 93 0.8 S 4 15 2 8 1013.6 1013.5 0.0
23/11:00pm 21.4 22.3 20.0 92 0.9 S 15 19 8 10 1013.6 1013.5 0.0
23/10:30pm 21.6 22.6 20.2 92 0.9 SSW 15 20 8 11 1014.3 1014.2 0.0
23/10:00pm 21.7 21.3 20.2 91 1.0 S 22 30 12 16 1013.6 1013.5 0.0
23/09:30pm 21.9 20.9 20.4 91 1.0 S 26 37 14 20 1013.6 1013.5 0.0
23/09:00pm 22.5 16.8 20.2 87 1.5 SSW 50 74 27 40 1012.7 1012.6 0.0
23/08:51pm 23.1 17.0 20.1 83 1.9 SSW 52 72 28 39 1012.4 1012.3 0.0
23/08:47pm 24.3 16.7 18.9 72 3.4 S 57 72 31 39 1011.0 1010.9 0.0
23/08:46pm 24.9 21.8 18.8 69 3.9 SW 33 70 18 38 1011.1 1011.0 0.0
23/08:30pm 26.2 26.0 17.6 59 5.4 N 15 22 8 12 1010.7 1010.6 0.0
23/08:00pm 28.4 22.9 16.7 49 7.3 N 41 65 22 35 1008.7 1008.7 0.0
23/07:50pm 27.2 22.2 17.1 54 6.3 N 39 61 21 33 1008.4 1008.4 0.0
23/07:30pm 27.8 21.9 16.7 50 6.9 N 43 56 23 30 1007.5 1007.5 0.0
23/07:00pm 27.5 24.2 17.9 55 6.1 NNE 32 44 17 24 1007.8 1007.8 0.0
23/06:30pm 25.6 25.0 20.4 73 3.4 E 24 30 13 16 1008.4 1008.4 0.0
23/06:00pm 25.8 28.9 21.0 75 3.2 WSW 6 11 3 6 1009.2 1009.2 0.0
23/05:58pm 25.5 28.7 21.2 77 2.8 WSW 6 17 3 9 1009.0 1009.0 0.0
23/05:30pm 24.4 25.0 21.1 82 2.2 N 19 24 10 13 1006.9 1006.9 0.0
23/05:00pm 23.8 26.8 20.9 84 1.9 SSW 6 15 3 8 1007.9 1007.9 0.0
23/04:30pm 23.9 26.9 20.8 83 2.0 N 6 9 3 5 1007.3 1007.3 0.0
23/04:00pm 24.3 25.8 21.2 83 2.0 NNE 15 20 8 11 1007.1 1007.1 0.0
23/03:30pm 23.9 25.5 20.8 83 2.0 NNE 13 17 7 9 1007.5 1007.5 0.0
23/03:00pm 24.2 25.2 21.1 83 2.0 NNE 17 22 9 12 1008.1 1008.1 0.0
23/02:30pm 24.7 26.0 20.8 79 2.6 NE 15 17 8 9 1008.7 1008.7 0.0
23/02:00pm 24.8 25.8 20.3 76 2.9 NE 15 17 8 9 1009.2 1009.2 0.0
23/01:30pm 27.8 29.8 22.3 72 3.7 NE 15 19 8 10 1009.7 1009.6 0.0
23/01:00pm 27.5 28.6 21.3 69 4.1 NE 17 20 9 11 1010.1 1010.0 0.0
23/12:30pm 27.8 29.6 22.5 73 3.6 NE 17 20 9 11 1010.6 1010.5 0.0
23/12:00pm 26.1 27.8 20.9 73 3.4 ENE 13 15 7 8 1011.0 1010.9 0.0
23/11:30am 26.2 29.4 21.6 76 3.1 ENE 7 13 4 7 1011.2 1011.1 0.0
23/11:00am 24.9 27.3 20.8 78 2.7 ENE 9 9 5 5 1011.5 1011.4 0.0
23/10:30am 24.9 26.1 21.4 81 2.3 NE 17 19 9 10 1011.8 1011.7 0.0
23/10:00am 24.3 25.5 20.6 80 2.4 NE 15 19 8 10 1012.0 1011.9 0.0
23/09:30am 21.8 22.9 19.7 88 1.3 NNE 13 15 7 8 1011.9 1011.8 0.0
23/09:00am 24.0 26.2 21.1 84 1.9 NE 11 13 6 7 1011.9 1011.8 0.0
23/08:30am 22.7 25.8 21.0 90 1.1 NE 6 9 3 5 1011.7 1011.6 0.0
23/08:00am 20.7 23.0 19.5 93 0.8 NNE 6 9 3 5 1011.6 1011.5 0.0
23/07:30am 20.5 24.1 19.7 95 0.5 CALM 0 0 0 0 1011.6 1011.5 0.0
23/07:00am 20.1 23.1 19.3 95 0.5 WSW 2 7 1 4 1011.5 1011.4 0.0
23/06:30am 20.0 23.3 19.2 95 0.5 CALM 0 0 0 0 1011.1 1011.0 0.0
23/06:00am 19.9 22.9 19.2 96 0.4 W 2 6 1 3 1010.9 1010.8 0.0
23/05:30am 20.2 23.3 19.5 96 0.4 W 2 6 1 3 1011.2 1011.1 0.0
23/05:00am 20.1 23.5 19.4 96 0.4 CALM 0 0 0 0 1010.9 1010.8 0.0
23/04:30am 20.2 23.7 19.5 96 0.4 CALM 0 0 0 0 1010.7 1010.6 0.0
23/04:00am 20.2 23.7 19.5 96 0.4 CALM 0 4 0 2 1010.4 1010.3 0.0
23/03:30am 20.3 23.8 19.6 96 0.4 CALM 0 4 0 2 1010.9 1010.8 0.0
23/03:00am 20.3 23.1 19.6 96 0.4 NNW 4 6 2 3 1010.9 1010.8 0.0
23/02:30am 20.4 22.6 19.7 96 0.4 NNE 7 13 4 7 1010.9 1010.8 0.0
23/02:00am 20.4 23.6 19.7 96 0.4 NNW 2 7 1 4 1011.7 1011.6 0.0
23/01:30am 20.5 23.4 19.8 96 0.4 N 4 7 2 4 1012.1 1012.0 0.0
23/01:00am 20.4 22.8 19.7 96 0.4 NNE 6 7 3 4 1011.9 1011.8 0.0
23/12:30am 20.4 22.8 19.7 96 0.4 N 6 9 3 5 1012.8 1012.7 0.0
23/12:00am 20.5 22.0 19.7 95 0.5 N 11 13 6 7 1012.8 1012.7 0.0
 
Date/Time
EDT
Temp
°C
App
Temp
°C
Dew
Point
Rel
Hum
%
Delta-T
°C
Wind Press
QNH
hPa
Press
MSL
hPa
Rain
since 9 am
mm
Dir
 
Spd
km/h
Gust
km/h
Spd
kts
Gust
kts
22/11:30pm 20.5 24.0 19.5 94 0.6 CALM 0 0 0 0 1013.3 1013.2 0.0
22/11:00pm 20.5 24.0 19.5 94 0.6 CALM 0 0 0 0 1013.5 1013.4 0.0
22/10:30pm 20.5 23.3 19.7 95 0.5 N 4 6 2 3 1013.7 1013.6 0.0
22/10:00pm 20.4 21.7 19.4 94 0.6 N 11 17 6 9 1013.5 1013.4 0.0
22/09:30pm 20.5 20.3 19.3 93 0.8 NNE 19 22 10 12 1013.0 1012.9 0.0
22/09:00pm 20.7 21.7 19.4 92 0.8 NNE 13 19 7 10 1012.8 1012.7 0.0
22/08:30pm 20.9 21.4 19.2 90 1.1 NE 15 19 8 10 1012.4 1012.3 0.0
22/08:00pm 21.0 21.4 19.1 89 1.2 NE 15 17 8 9 1012.5 1012.4 0.0
22/07:30pm 21.1 22.3 19.0 88 1.3 ENE 11 15 6 8 1012.1 1012.0 0.0
22/07:00pm 21.0 21.7 18.9 88 1.3 ENE 13 15 7 8 1011.8 1011.7 0.0
22/06:30pm 21.0 21.3 18.8 87 1.4 E 15 19 8 10 1011.2 1011.1 0.0
22/06:00pm 21.0 20.8 18.4 85 1.6 E 17 20 9 11 1010.9 1010.8 0.0
22/05:30pm 21.4 20.8 18.4 83 1.9 E 19 22 10 12 1010.9 1010.8 0.0
22/05:00pm 21.9 20.7 18.3 80 2.3 E 22 26 12 14 1011.1 1011.0 0.0
22/04:30pm 22.2 20.8 18.0 77 2.6 E 22 24 12 13 1011.2 1011.1 0.0
22/04:00pm 22.6 21.9 17.3 72 3.3 E 17 19 9 10 1011.3 1011.2 0.0
22/03:30pm 22.9 21.7 17.6 72 3.3 ESE 20 24 11 13 1011.9 1011.8 0.0
22/03:00pm 22.8 21.5 17.3 71 3.4 ESE 20 22 11 12 1012.1 1012.0 0.0
22/02:30pm 23.4 21.9 17.6 70 3.6 ESE 22 26 12 14 1012.1 1012.0 0.0
22/02:00pm 23.8 22.6 17.5 68 3.9 SE 20 22 11 12 1012.6 1012.5 0.0
22/01:30pm 23.8 23.5 17.3 67 4.0 SE 15 17 8 9 1013.3 1013.2 0.0
22/01:00pm 24.1 24.0 17.8 68 3.9 SE 15 17 8 9 1013.7 1013.6 0.0
22/12:30pm 23.4 23.2 16.7 66 4.1 SE 13 15 7 8 1013.8 1013.7 0.0
22/12:00pm 24.0 23.4 17.5 67 4.0 SSE 17 20 9 11 1014.5 1014.4 0.0
22/11:30am 22.4 20.7 17.1 72 3.3 S 22 26 12 14 1015.2 1015.1 0.0

Other Formats:

Comma delimited format used in spreadsheet applications
http://www.bom.gov.au/fwo/IDN60801/IDN60801.95770.axf

JavaScript Object Notation format (JSON) in row-major order
http://www.bom.gov.au/fwo/IDN60801/IDN60801.95770.json